615VGS Twitter

615VGS Facebook

Staff Login


Staff who require login details should contact the MCO.

Join 615 VGS

 

 

615 VGS Partner

bigatmo

Course Photos 2013

KY Aviation Wx

[source: ADDS]
METAR
EGKB 010950Z 27005KT 9999 FEW005 BKN013 15/13 Q1025 =
TAF
TAF EGKB 010800Z 0109/0118 24006KT 8000 BKN012 BECMG 0109/0111 9999 SCT025 PROB40 TEMPO 0111/0115 8000 -RA =
SR / SS: 06:00 / 17:37 UTC (Sunrise/Sunset 2014-10-01)